createdAt,value
2023-09-23T00:01:27.189Z,97993.84
2023-09-23T00:03:54.039Z,98002.00
2023-09-23T00:06:23.906Z,98000.94
2023-09-23T00:08:50.730Z,97999.56
2023-09-23T00:11:17.740Z,98010.38
2023-09-23T00:13:44.423Z,98015.44
2023-09-23T00:16:15.838Z,98016.81
2023-09-23T00:18:46.390Z,98015.81
2023-09-23T00:21:14.044Z,98025.38
2023-09-23T00:23:41.238Z,98024.72
2023-09-23T00:26:08.557Z,98023.66
2023-09-23T00:28:35.533Z,98025.69
2023-09-23T00:31:15.714Z,98027.59
2023-09-23T00:33:43.455Z,98034.06
2023-09-23T00:36:10.378Z,98039.09
2023-09-23T00:38:37.842Z,98036.47
2023-09-23T00:41:09.166Z,98041.69
2023-09-23T00:43:36.981Z,98038.88
2023-09-23T00:46:07.440Z,98036.47
2023-09-23T00:48:39.234Z,98045.63
2023-09-23T00:51:07.613Z,98052.69
2023-09-23T00:53:36.390Z,98053.56
2023-09-23T00:56:07.052Z,98053.13
2023-09-23T00:58:33.648Z,98057.41
2023-09-23T01:01:00.153Z,98060.28
2023-09-23T01:03:28.490Z,98045.16
2023-09-23T01:06:05.551Z,98052.50
2023-09-23T01:08:32.307Z,98044.72
2023-09-23T01:10:58.815Z,98055.94
2023-09-23T01:13:26.016Z,98053.16
2023-09-23T01:15:52.941Z,98048.84
2023-09-23T01:18:21.685Z,98049.53
2023-09-23T01:20:51.010Z,98051.97
2023-09-23T01:23:19.020Z,98053.03
2023-09-23T01:25:45.647Z,98051.16
2023-09-23T01:28:12.827Z,98055.63
2023-09-23T01:30:41.667Z,98059.50
2023-09-23T01:33:08.938Z,98065.66
2023-09-23T01:35:36.190Z,98065.25
2023-09-23T01:38:07.594Z,98059.34
2023-09-23T01:40:36.124Z,98070.16
2023-09-23T01:43:03.291Z,98070.72
2023-09-23T01:45:31.433Z,98063.41
2023-09-23T01:47:58.282Z,98065.25
2023-09-23T01:50:26.347Z,98065.03
2023-09-23T01:52:53.212Z,98065.50
2023-09-23T01:55:20.105Z,98066.94
2023-09-23T01:57:49.194Z,98067.59
2023-09-23T02:00:19.353Z,98072.91
2023-09-23T02:02:46.546Z,98069.28
2023-09-23T02:05:13.467Z,98078.44
2023-09-23T02:07:42.342Z,98080.03
2023-09-23T02:10:16.006Z,98083.28
2023-09-23T02:12:43.588Z,98080.84
2023-09-23T02:15:16.695Z,98087.16
2023-09-23T02:17:44.938Z,98086.31
2023-09-23T02:20:13.999Z,98089.81
2023-09-23T02:22:42.986Z,98094.69
2023-09-23T02:25:13.177Z,98097.53
2023-09-23T02:27:40.876Z,98092.88
2023-09-23T02:30:10.527Z,98103.25
2023-09-23T02:32:42.397Z,98102.63
2023-09-23T02:35:12.909Z,98111.75
2023-09-23T02:37:40.868Z,98120.09
2023-09-23T02:40:12.570Z,98120.28
2023-09-23T02:42:43.801Z,98132.03
2023-09-23T02:45:12.103Z,98138.34
2023-09-23T02:47:39.888Z,98141.97
2023-09-23T02:50:11.219Z,98140.19
2023-09-23T02:52:40.158Z,98141.22
2023-09-23T02:55:15.710Z,98142.00
2023-09-23T02:57:48.066Z,98140.19
2023-09-23T03:00:18.079Z,98137.97
2023-09-23T03:02:56.557Z,98137.75
2023-09-23T03:05:32.182Z,98132.28
2023-09-23T03:08:01.018Z,98142.00
2023-09-23T03:10:40.843Z,98147.06
2023-09-23T03:13:08.770Z,98147.03
2023-09-23T03:15:51.678Z,98149.25
2023-09-23T03:18:38.604Z,98159.78
2023-09-23T03:21:16.291Z,98161.97
2023-09-23T03:23:42.926Z,98167.47
2023-09-23T03:26:11.028Z,98165.69
2023-09-23T03:28:38.195Z,98172.75
2023-09-23T03:31:04.925Z,98172.72
2023-09-23T03:33:33.551Z,98176.19
2023-09-23T03:36:00.087Z,98169.56
2023-09-23T03:38:27.572Z,98173.41
2023-09-23T03:41:00.885Z,98183.38
2023-09-23T03:43:30.339Z,98189.84
2023-09-23T03:45:57.235Z,98189.25
2023-09-23T03:48:23.884Z,98193.13
2023-09-23T03:50:54.996Z,98201.47
2023-09-23T03:53:25.718Z,98206.50
2023-09-23T03:55:56.189Z,98206.13
2023-09-23T03:58:23.653Z,98214.66
2023-09-23T04:00:50.524Z,98214.66
2023-09-23T04:03:19.214Z,98208.34
2023-09-23T04:05:54.742Z,98215.03
2023-09-23T04:08:21.397Z,98219.69
2023-09-23T04:10:48.015Z,98210.97
2023-09-23T04:13:15.769Z,98217.50
2023-09-23T04:15:42.955Z,98207.13
2023-09-23T04:18:10.459Z,98202.88
2023-09-23T04:20:37.505Z,98210.38
2023-09-23T04:23:04.583Z,98212.38
2023-09-23T04:25:31.351Z,98213.19
2023-09-23T04:27:57.954Z,98212.34
2023-09-23T04:30:26.394Z,98223.44
2023-09-23T04:32:53.031Z,98219.41
2023-09-23T04:35:19.730Z,98221.09
2023-09-23T04:37:46.319Z,98222.69
2023-09-23T04:40:14.336Z,98231.63
2023-09-23T04:42:44.574Z,98238.94
2023-09-23T04:45:12.480Z,98240.72
2023-09-23T04:47:39.682Z,98239.13
2023-09-23T04:50:08.744Z,98244.00
2023-09-23T04:52:36.213Z,98247.22
2023-09-23T04:55:03.487Z,98253.72
2023-09-23T04:57:30.312Z,98260.03
2023-09-23T04:59:58.730Z,98254.56
2023-09-23T05:02:27.289Z,98257.56
2023-09-23T05:04:56.916Z,98258.16
2023-09-23T05:07:27.037Z,98256.88
2023-09-23T05:09:56.768Z,98259.28
2023-09-23T05:12:24.878Z,98271.44
2023-09-23T05:14:54.093Z,98276.81
2023-09-23T05:17:23.000Z,98295.69
2023-09-23T05:19:49.969Z,98297.31
2023-09-23T05:22:17.725Z,98303.00
2023-09-23T05:24:48.657Z,98308.59
2023-09-23T05:27:15.968Z,98307.16
2023-09-23T05:29:45.800Z,98316.47
2023-09-23T05:32:13.280Z,98316.09
2023-09-23T05:34:40.558Z,98319.09
2023-09-23T05:37:13.173Z,98318.44
2023-09-23T05:39:46.726Z,98323.91
2023-09-23T05:42:15.079Z,98320.63
2023-09-23T05:44:42.354Z,98327.50
2023-09-23T05:47:10.273Z,98330.50
2023-09-23T05:49:37.779Z,98334.16
2023-09-23T05:52:04.461Z,98339.88
2023-09-23T05:54:32.629Z,98336.69
2023-09-23T05:56:59.137Z,98339.47
2023-09-23T05:59:25.717Z,98349.38
2023-09-23T06:01:52.343Z,98352.50
2023-09-23T06:04:18.891Z,98363.41
2023-09-23T06:06:45.422Z,98373.38
2023-09-23T06:09:11.900Z,98367.97
2023-09-23T06:11:38.986Z,98371.75
2023-09-23T06:14:05.618Z,98382.31
2023-09-23T06:16:32.191Z,98386.88
2023-09-23T06:18:58.751Z,98387.03
2023-09-23T06:21:25.254Z,98392.84
2023-09-23T06:23:51.752Z,98389.63
2023-09-23T06:26:20.717Z,98387.78
2023-09-23T06:28:49.098Z,98397.25
2023-09-23T06:31:16.053Z,98389.47
2023-09-23T06:33:46.912Z,98385.50
2023-09-23T06:36:28.730Z,98382.72
2023-09-23T06:38:55.542Z,98386.19
2023-09-23T06:41:28.025Z,98381.34
2023-09-23T06:44:00.700Z,98381.81
2023-09-23T06:46:32.407Z,98375.69
2023-09-23T06:49:04.931Z,98375.50
2023-09-23T06:51:44.343Z,98380.59
2023-09-23T06:54:13.387Z,98385.91
2023-09-23T07:03:17.117Z,98392.97
2023-09-23T07:09:21.061Z,98389.97
2023-09-23T07:11:47.882Z,98380.66
2023-09-23T07:14:15.073Z,98389.03
2023-09-23T07:33:30.626Z,98409.66
2023-09-23T07:39:43.132Z,98419.94
2023-09-23T07:43:15.585Z,98422.34
2023-09-23T07:49:01.976Z,98430.09
2023-09-23T07:51:39.116Z,98424.88
2023-09-23T07:54:28.922Z,98428.56
2023-09-23T07:57:03.087Z,98439.19
2023-09-23T07:59:32.955Z,98443.25
2023-09-23T08:02:03.049Z,98436.28
2023-09-23T08:04:32.749Z,98437.97
2023-09-23T08:06:59.699Z,98440.09
2023-09-23T08:09:26.284Z,98441.03
2023-09-23T08:11:52.905Z,98447.66
2023-09-23T08:14:19.489Z,98442.94
2023-09-23T08:16:46.016Z,98447.66
2023-09-23T08:19:12.949Z,98451.06
2023-09-23T08:21:39.643Z,98453.81
2023-09-23T08:24:06.402Z,98461.75
2023-09-23T08:26:32.996Z,98463.41
2023-09-23T08:31:26.290Z,98474.72
2023-09-23T08:33:52.829Z,98468.50
2023-09-23T08:36:19.377Z,98474.59
2023-09-23T08:38:47.073Z,98468.94
2023-09-23T08:41:17.560Z,98469.03
2023-09-23T08:43:45.137Z,98471.09
2023-09-23T08:46:13.722Z,98465.44
2023-09-23T08:48:41.628Z,98469.56
2023-09-23T08:51:10.057Z,98465.16
2023-09-23T08:53:39.970Z,98471.84
2023-09-23T08:56:07.942Z,98469.88
2023-09-23T08:58:34.716Z,98472.66
2023-09-23T09:01:02.371Z,98470.59
2023-09-23T09:03:30.369Z,98482.66
2023-09-23T09:05:57.093Z,98479.09
2023-09-23T09:08:24.046Z,98480.75
2023-09-23T09:10:50.730Z,98490.72
2023-09-23T09:13:18.575Z,98484.47
2023-09-23T09:15:45.747Z,98479.53
2023-09-23T09:18:12.375Z,98477.56
2023-09-23T09:20:38.985Z,98478.25
2023-09-23T09:23:05.555Z,98475.91
2023-09-23T09:25:32.576Z,98486.13
2023-09-23T09:27:59.374Z,98484.06
2023-09-23T09:30:27.034Z,98494.16
2023-09-23T09:33:00.163Z,98488.13
2023-09-23T09:35:27.729Z,98493.56
2023-09-23T09:38:07.354Z,98489.44
2023-09-23T09:40:43.069Z,98493.09
2023-09-23T09:43:10.652Z,98501.81
2023-09-23T09:45:41.703Z,98496.81
2023-09-23T09:48:09.692Z,98502.75
2023-09-23T09:50:39.835Z,98506.81
2023-09-23T09:53:09.932Z,98503.28
2023-09-23T09:55:36.519Z,98507.88
2023-09-23T09:58:03.353Z,98507.34
2023-09-23T10:00:35.429Z,98509.63
2023-09-23T10:03:07.736Z,98509.38
2023-09-23T10:05:35.968Z,98512.88
2023-09-23T10:08:16.969Z,98518.38
2023-09-23T10:10:49.109Z,98515.13
2023-09-23T10:13:21.071Z,98509.38
2023-09-23T10:15:47.768Z,98525.69
2023-09-23T10:18:17.851Z,98523.00
2023-09-23T10:20:49.399Z,98521.84
2023-09-23T10:23:24.724Z,98524.50
2023-09-23T10:25:53.558Z,98526.91
2023-09-23T10:28:21.655Z,98521.16
2023-09-23T10:31:05.368Z,98527.31
2023-09-23T10:33:36.626Z,98517.38
2023-09-23T10:36:05.049Z,98522.44
2023-09-23T10:38:36.157Z,98521.19
2023-09-23T10:41:05.256Z,98525.78
2023-09-23T10:43:32.619Z,98520.59
2023-09-23T10:46:03.297Z,98524.50
2023-09-23T10:48:31.147Z,98519.19
2023-09-23T10:50:58.617Z,98513.81
2023-09-23T10:53:31.066Z,98520.03
2023-09-23T10:56:03.060Z,98522.34
2023-09-23T10:58:33.061Z,98526.00
2023-09-23T11:00:59.633Z,98529.31
2023-09-23T11:03:26.537Z,98521.44
2023-09-23T11:05:53.319Z,98525.50
2023-09-23T11:08:19.954Z,98527.47
2023-09-23T11:10:48.944Z,98528.56
2023-09-23T11:13:16.972Z,98534.63
2023-09-23T11:15:46.288Z,98547.72
2023-09-23T11:18:15.746Z,98542.91
2023-09-23T11:20:44.022Z,98548.47
2023-09-23T11:23:11.440Z,98542.88
2023-09-23T11:25:47.823Z,98552.59
2023-09-23T11:28:22.724Z,98552.47
2023-09-23T11:30:57.683Z,98552.13
2023-09-23T11:33:26.848Z,98553.31
2023-09-23T11:36:01.806Z,98550.09
2023-09-23T11:38:28.708Z,98546.56
2023-09-23T11:48:26.458Z,98541.16
2023-09-23T11:51:34.102Z,98542.19
2023-09-23T11:54:15.474Z,98529.94
2023-09-23T11:56:45.539Z,98540.34
2023-09-23T11:59:12.346Z,98546.53
2023-09-23T12:01:39.131Z,98548.25
2023-09-23T12:04:06.162Z,98557.56
2023-09-23T12:06:37.751Z,98553.13
2023-09-23T12:09:05.137Z,98551.53
2023-09-23T12:11:31.779Z,98558.31
2023-09-23T12:13:58.329Z,98567.59
2023-09-23T12:16:25.023Z,98557.16
2023-09-23T12:18:51.622Z,98569.25
2023-09-23T12:21:23.362Z,98562.31
2023-09-23T12:23:50.228Z,98565.03
2023-09-23T12:26:16.853Z,98569.69
2023-09-23T12:28:43.826Z,98567.13
2023-09-23T12:31:11.305Z,98563.03
2023-09-23T12:33:38.007Z,98564.75
2023-09-23T12:36:04.733Z,98560.78
2023-09-23T12:38:31.689Z,98573.91
2023-09-23T12:40:58.421Z,98567.75
2023-09-23T12:43:25.090Z,98568.56
2023-09-23T12:45:54.754Z,98576.41
2023-09-23T12:48:21.509Z,98574.41
2023-09-23T12:50:49.165Z,98573.69
2023-09-23T12:53:15.893Z,98582.03
2023-09-23T12:55:42.443Z,98586.28
2023-09-23T12:58:09.263Z,98585.16
2023-09-23T13:00:38.758Z,98585.94
2023-09-23T13:03:15.323Z,98586.00
2023-09-23T13:06:19.638Z,98590.16
2023-09-23T13:08:54.388Z,98583.66
2023-09-23T13:11:24.127Z,98586.75
2023-09-23T13:13:51.934Z,98585.84
2023-09-23T13:16:18.872Z,98591.81
2023-09-23T13:18:45.936Z,98600.41
2023-09-23T13:21:13.120Z,98596.53
2023-09-23T13:23:40.041Z,98603.91
2023-09-23T13:26:07.905Z,98596.84
2023-09-23T13:28:35.191Z,98608.47
2023-09-23T13:31:02.005Z,98605.38
2023-09-23T13:33:29.241Z,98614.22
2023-09-23T13:35:55.916Z,98618.97
2023-09-23T13:38:22.522Z,98617.59
2023-09-23T13:40:49.199Z,98617.84
2023-09-23T13:43:15.810Z,98620.88
2023-09-23T13:45:42.385Z,98616.00
2023-09-23T13:48:09.750Z,98622.00
2023-09-23T13:50:37.776Z,98632.84
2023-09-23T13:53:14.000Z,98635.63
2023-09-23T13:55:43.518Z,98627.50
2023-09-23T13:58:10.824Z,98632.50
2023-09-23T14:00:38.427Z,98639.97
2023-09-23T14:03:05.408Z,98635.66
2023-09-23T14:05:32.002Z,98643.91
2023-09-23T14:07:58.639Z,98638.75
2023-09-23T14:10:26.324Z,98638.38
2023-09-23T14:12:52.943Z,98641.78
2023-09-23T14:15:19.639Z,98645.50
2023-09-23T14:17:47.990Z,98634.84
2023-09-23T14:20:15.399Z,98639.44
2023-09-23T14:25:49.822Z,98646.91
2023-09-23T14:28:18.951Z,98654.00
2023-09-23T14:30:48.300Z,98647.03
2023-09-23T14:33:14.993Z,98652.13
2023-09-23T14:35:45.221Z,98650.97
2023-09-23T14:41:36.424Z,98666.38
2023-09-23T14:52:22.210Z,98676.84
2023-09-23T14:55:08.134Z,98682.34
2023-09-23T15:01:00.932Z,98692.28
2023-09-23T15:03:27.661Z,98684.94
2023-09-23T15:05:54.377Z,98691.88
2023-09-23T15:08:20.992Z,98695.06
2023-09-23T15:10:47.560Z,98692.13
2023-09-23T15:13:14.064Z,98698.94
2023-09-23T15:15:41.033Z,98697.69
2023-09-23T15:18:07.636Z,98701.72
2023-09-23T15:20:34.716Z,98695.59
2023-09-23T15:24:03.857Z,98697.81
2023-09-23T15:26:30.418Z,98703.16
2023-09-23T15:28:57.005Z,98709.13
2023-09-23T15:31:24.383Z,98712.16
2023-09-23T15:33:50.962Z,98714.97
2023-09-23T15:36:19.175Z,98712.31
2023-09-23T15:38:46.038Z,98707.47
2023-09-23T15:41:13.008Z,98712.56
2023-09-23T15:43:40.333Z,98717.91
2023-09-23T15:46:07.007Z,98723.69
2023-09-23T15:48:34.833Z,98726.00
2023-09-23T15:51:10.021Z,98728.66
2023-09-23T15:53:39.983Z,98724.97
2023-09-23T15:56:10.479Z,98737.22
2023-09-23T15:58:41.436Z,98746.09
2023-09-23T16:01:08.253Z,98744.44
2023-09-23T16:03:35.613Z,98739.59
2023-09-23T16:06:03.292Z,98734.38
2023-09-23T16:08:29.981Z,98739.59
2023-09-23T16:10:56.587Z,98739.03
2023-09-23T16:13:23.289Z,98740.84
2023-09-23T16:15:49.948Z,98737.81
2023-09-23T16:18:18.044Z,98739.16
2023-09-23T16:20:46.747Z,98744.47
2023-09-23T16:23:13.256Z,98754.84
2023-09-23T16:25:40.054Z,98762.91
2023-09-23T16:28:07.442Z,98759.22
2023-09-23T16:37:55.802Z,98761.34
2023-09-23T16:40:22.790Z,98774.69
2023-09-23T16:42:49.431Z,98777.78
2023-09-23T16:45:16.220Z,98780.69
2023-09-23T16:47:42.895Z,98794.78
2023-09-23T16:50:09.981Z,98796.22
2023-09-23T16:52:36.602Z,98800.72
2023-09-23T16:55:03.279Z,98802.97
2023-09-23T16:57:29.772Z,98807.66
2023-09-23T16:59:56.300Z,98809.72
2023-09-23T17:02:23.021Z,98801.97
2023-09-23T17:04:50.069Z,98800.53
2023-09-23T17:07:16.760Z,98813.97
2023-09-23T17:09:44.140Z,98817.84
2023-09-23T17:12:14.008Z,98822.94
2023-09-23T17:14:40.900Z,98830.28
2023-09-23T17:17:07.886Z,98838.41
2023-09-23T17:19:34.920Z,98840.00
2023-09-23T17:22:01.750Z,98844.22
2023-09-23T17:24:30.354Z,98845.03
2023-09-23T17:26:57.185Z,98858.88
2023-09-23T17:29:23.761Z,98856.19
2023-09-23T17:31:50.302Z,98858.59
2023-09-23T17:34:17.101Z,98858.97
2023-09-23T17:36:43.804Z,98866.66
2023-09-23T17:39:11.841Z,98872.94
2023-09-23T17:41:39.161Z,98879.59
2023-09-23T17:44:06.830Z,98880.38
2023-09-23T17:46:34.407Z,98886.84
2023-09-23T17:49:01.117Z,98891.28
2023-09-23T17:51:28.160Z,98897.72
2023-09-23T17:53:54.915Z,98895.81
2023-09-23T17:56:23.160Z,98903.22
2023-09-23T17:58:50.226Z,98897.47
2023-09-23T18:01:16.899Z,98911.25
2023-09-23T18:03:43.543Z,98914.03
2023-09-23T18:06:10.198Z,98921.31
2023-09-23T18:08:36.810Z,98926.69
2023-09-23T18:11:03.480Z,98928.97
2023-09-23T18:13:29.999Z,98941.34
2023-09-23T18:15:56.801Z,98945.97
2023-09-23T18:18:25.718Z,98955.34
2023-09-23T18:20:52.333Z,98962.75
2023-09-23T18:23:18.965Z,98962.31
2023-09-23T18:25:45.594Z,98970.53
2023-09-23T18:28:12.171Z,98973.97
2023-09-23T18:30:39.326Z,98981.38
2023-09-23T18:33:07.242Z,98986.81
2023-09-23T18:35:34.368Z,98994.13
2023-09-23T18:38:01.013Z,98997.97
2023-09-23T18:40:27.534Z,99001.97
2023-09-23T18:42:56.924Z,99013.59
2023-09-23T18:45:23.457Z,99027.50
2023-09-23T18:47:57.556Z,99033.75
2023-09-23T18:50:34.388Z,99039.22
2023-09-23T18:53:01.377Z,99040.72
2023-09-23T18:55:28.436Z,99048.03
2023-09-23T18:58:03.017Z,99060.25
2023-09-23T19:00:46.388Z,99063.09
2023-09-23T19:03:13.336Z,99051.41
2023-09-23T19:05:40.072Z,99065.25
2023-09-23T19:08:07.129Z,99064.06
2023-09-23T19:10:34.062Z,99063.16
2023-09-23T19:13:01.097Z,99067.47
2023-09-23T19:15:27.582Z,99070.66
2023-09-23T19:17:55.177Z,99077.59
2023-09-23T19:20:21.794Z,99083.56
2023-09-23T19:22:48.813Z,99076.50
2023-09-23T19:25:15.933Z,99079.66
2023-09-23T19:27:43.974Z,99085.41
2023-09-23T19:30:14.277Z,99095.06
2023-09-23T19:32:41.740Z,99101.13
2023-09-23T19:35:09.037Z,99108.59
2023-09-23T19:37:37.323Z,99110.66
2023-09-23T19:40:06.235Z,99110.06
2023-09-23T19:42:34.164Z,99112.41
2023-09-23T19:45:03.903Z,99117.16
2023-09-23T19:47:32.450Z,99123.41
2023-09-23T19:50:01.517Z,99125.47
2023-09-23T19:52:30.618Z,99130.44
2023-09-23T19:54:57.839Z,99131.78
2023-09-23T19:57:26.386Z,99131.31
2023-09-23T19:59:53.571Z,99133.47
2023-09-23T20:02:20.449Z,99137.41
2023-09-23T20:04:47.230Z,99137.59
2023-09-23T20:07:14.100Z,99137.06
2023-09-23T20:09:41.544Z,99130.22
2023-09-23T20:12:08.635Z,99127.94
2023-09-23T20:14:37.914Z,99137.38
2023-09-23T20:17:05.432Z,99134.75
2023-09-23T20:19:32.058Z,99133.91
2023-09-23T20:21:58.622Z,99143.47
2023-09-23T20:24:25.437Z,99142.81
2023-09-23T20:26:54.153Z,99148.75
2023-09-23T20:29:21.727Z,99153.22
2023-09-23T20:31:49.826Z,99160.09
2023-09-23T20:34:17.867Z,99160.59
2023-09-23T20:36:45.479Z,99171.78
2023-09-23T20:39:12.280Z,99178.03
2023-09-23T20:41:38.895Z,99176.88
2023-09-23T20:44:05.811Z,99185.09
2023-09-23T20:46:33.098Z,99193.63
2023-09-23T20:49:00.646Z,99191.69
2023-09-23T20:51:27.343Z,99200.72
2023-09-23T20:53:55.713Z,99203.19
2023-09-23T20:56:22.502Z,99201.22
2023-09-23T20:58:49.084Z,99206.31
2023-09-23T21:01:15.656Z,99212.41
2023-09-23T21:03:42.825Z,99212.72
2023-09-23T21:06:09.940Z,99213.22
2023-09-23T21:08:36.624Z,99218.97
2023-09-23T21:11:03.249Z,99224.69
2023-09-23T21:13:29.819Z,99225.03
2023-09-23T21:16:00.738Z,99232.44
2023-09-23T21:18:27.371Z,99223.06
2023-09-23T21:20:53.967Z,99236.50
2023-09-23T21:23:21.161Z,99236.50
2023-09-23T21:25:50.929Z,99237.16
2023-09-23T21:28:17.549Z,99240.44
2023-09-23T21:30:44.094Z,99243.72
2023-09-23T21:33:11.562Z,99246.69
2023-09-23T21:35:41.748Z,99246.72
2023-09-23T21:38:08.822Z,99245.19
2023-09-23T21:40:42.644Z,99247.78
2023-09-23T21:43:09.520Z,99252.34
2023-09-23T21:45:39.483Z,99251.34
2023-09-23T21:48:10.253Z,99259.13
2023-09-23T21:50:37.240Z,99253.91
2023-09-23T21:53:05.382Z,99263.94
2023-09-23T21:55:31.899Z,99257.19
2023-09-23T21:57:58.643Z,99260.16
2023-09-23T22:00:29.288Z,99260.19
2023-09-23T22:02:59.905Z,99268.38
2023-09-23T22:05:28.475Z,99271.16
2023-09-23T22:07:56.544Z,99267.16
2023-09-23T22:10:23.845Z,99268.44
2023-09-23T22:12:50.551Z,99270.88
2023-09-23T22:15:18.185Z,99272.31
2023-09-23T22:17:45.146Z,99273.13
2023-09-23T22:20:12.234Z,99273.81
2023-09-23T22:22:41.603Z,99276.69
2023-09-23T22:25:24.131Z,99287.63
2023-09-23T22:27:52.764Z,99284.03
2023-09-23T22:30:25.175Z,99293.34
2023-09-23T22:32:59.447Z,99289.88
2023-09-23T22:35:30.582Z,99295.91
2023-09-23T22:38:00.132Z,99296.69
2023-09-23T22:40:27.165Z,99295.00
2023-09-23T22:42:56.145Z,99293.97
2023-09-23T22:45:36.208Z,99300.41
2023-09-23T22:48:06.372Z,99293.19
2023-09-23T22:50:33.230Z,99293.00
2023-09-23T22:52:59.788Z,99308.31
2023-09-23T22:55:26.388Z,99306.25
2023-09-23T22:57:53.713Z,99305.75
2023-09-23T23:00:26.932Z,99310.53
2023-09-23T23:02:54.191Z,99315.03
2023-09-23T23:05:21.120Z,99310.41
2023-09-23T23:07:51.368Z,99319.03
2023-09-23T23:10:18.456Z,99319.97
2023-09-23T23:12:47.069Z,99319.34
2023-09-23T23:15:16.217Z,99320.56
2023-09-23T23:17:44.890Z,99317.59
2023-09-23T23:20:25.986Z,99316.19
2023-09-23T23:22:56.547Z,99327.41
2023-09-23T23:25:24.817Z,99324.81
2023-09-23T23:27:51.682Z,99314.50
2023-09-23T23:30:19.109Z,99313.84
2023-09-23T23:32:50.268Z,99320.91
2023-09-23T23:35:23.412Z,99319.03
2023-09-23T23:37:50.750Z,99316.25
2023-09-23T23:40:21.220Z,99319.19
2023-09-23T23:42:48.015Z,99323.63
2023-09-23T23:45:14.753Z,99325.16
2023-09-23T23:47:41.388Z,99333.84
2023-09-23T23:50:08.559Z,99327.78
2023-09-23T23:52:35.226Z,99336.19
2023-09-23T23:55:03.461Z,99330.72
2023-09-23T23:57:30.005Z,99338.28
2023-09-23T23:59:56.772Z,99333.47
